createdAt,value
2023-03-06T10:34:25.515Z,34.28
2023-03-06T10:35:28.643Z,34.46
2023-03-06T10:36:26.559Z,34.36
2023-03-06T10:37:26.561Z,34.16
2023-03-06T10:38:26.580Z,34.06
2023-03-06T10:39:26.685Z,34.16
2023-03-06T10:40:26.678Z,34.16
2023-03-06T10:41:26.706Z,34.36
2023-03-06T10:42:28.883Z,34.36
2023-03-06T10:43:26.752Z,34.36
2023-03-06T10:44:26.820Z,34.36
2023-03-06T10:45:26.775Z,32.56
2023-03-06T10:46:26.851Z,31.68
2023-03-06T10:47:26.778Z,31.08
2023-03-06T10:48:26.827Z,31.78
2023-03-06T10:49:26.918Z,32.68
2023-03-06T10:50:26.979Z,32.98
2023-03-06T10:51:26.962Z,33.58
2023-03-06T10:52:27.012Z,33.58
2023-03-06T10:53:27.030Z,33.48
2023-03-06T10:54:27.085Z,33.36
2023-03-06T10:55:27.047Z,33.16
2023-03-06T10:56:27.086Z,33.26
2023-03-06T10:57:27.061Z,33.47
2023-03-06T10:58:27.085Z,33.36
2023-03-06T10:59:27.121Z,33.47
2023-03-06T11:00:27.116Z,33.47
2023-03-06T11:01:27.123Z,33.56
2023-03-06T11:02:27.117Z,33.76
2023-03-06T11:03:27.205Z,33.76
2023-03-06T11:04:27.157Z,33.96
2023-03-06T11:05:27.204Z,33.96
2023-03-06T11:06:27.179Z,34.06
2023-03-06T11:07:27.963Z,33.66
2023-03-06T11:08:27.181Z,33.96
2023-03-06T11:09:27.186Z,34.36
2023-03-06T11:10:27.239Z,34.26
2023-03-06T11:11:37.148Z,33.96
2023-03-06T11:12:27.220Z,34.36
2023-03-06T11:13:27.249Z,33.66
2023-03-06T11:14:27.751Z,33.36
2023-03-06T11:15:27.300Z,33.56
2023-03-06T11:16:27.387Z,33.56
2023-03-06T11:17:27.255Z,33.56
2023-03-06T11:18:27.247Z,33.47
2023-03-06T11:19:27.271Z,33.16
2023-03-06T11:20:27.734Z,32.46
2023-03-06T11:21:28.330Z,33.15
2023-03-06T11:22:27.280Z,32.75
2023-03-06T11:23:27.308Z,32.75
2023-03-06T11:24:27.273Z,32.75
2023-03-06T11:25:27.254Z,32.17
2023-03-06T11:26:27.304Z,32.46
2023-03-06T11:27:27.278Z,32.76
2023-03-06T11:28:27.273Z,32.45
2023-03-06T11:29:48.204Z,32.05
2023-03-06T11:30:49.172Z,32.55
2023-03-06T11:31:49.314Z,33.04
2023-03-06T11:32:49.307Z,32.15
2023-03-06T11:33:49.357Z,32.25
2023-03-06T11:34:50.678Z,32.15
2023-03-06T11:35:49.503Z,32.75
2023-03-06T11:36:49.529Z,32.65
2023-03-06T11:37:49.534Z,32.65
2023-03-06T11:38:49.573Z,32.75
2023-03-06T11:39:49.628Z,32.45
2023-03-06T11:40:49.687Z,32.35
2023-03-06T11:41:49.801Z,32.75
2023-03-06T11:42:49.773Z,32.45
2023-03-06T11:43:49.842Z,31.75
2023-03-06T11:44:49.896Z,31.65
2023-03-06T11:45:49.931Z,31.65
2023-03-06T11:46:50.090Z,31.05
2023-03-06T11:47:50.031Z,31.07
2023-03-06T11:48:50.104Z,30.77
2023-03-06T11:49:50.147Z,30.96
2023-03-06T11:50:50.227Z,30.77
2023-03-06T11:51:50.303Z,30.96
2023-03-06T11:52:50.365Z,31.07
2023-03-06T11:53:51.259Z,30.87
2023-03-06T11:54:50.466Z,30.96
2023-03-06T11:55:50.522Z,31.16
2023-03-06T11:56:50.655Z,31.57
2023-03-06T11:57:50.602Z,30.96
2023-03-06T11:58:50.706Z,31.37
2023-03-06T11:59:50.764Z,30.66
2023-03-06T12:00:50.769Z,30.77
2023-03-06T12:01:50.888Z,30.87
2023-03-06T12:02:50.858Z,30.75
2023-03-06T12:03:50.929Z,30.75
2023-03-06T12:04:50.978Z,30.85
2023-03-06T12:05:51.050Z,31.35
2023-03-06T12:06:51.181Z,30.85
2023-03-06T12:07:51.161Z,31.15
2023-03-06T12:08:51.203Z,30.95
2023-03-06T12:09:51.231Z,31.05
2023-03-06T12:10:52.033Z,31.15
2023-03-06T12:11:51.400Z,31.25
2023-03-06T12:12:51.351Z,31.25
2023-03-06T12:14:51.419Z,31.15
2023-03-06T12:15:51.445Z,31.25
